Flight Track Log - Related Links

Times and Time Zones

All times are in EST time to prevent confusion due to time zone crossing. See the VET90 flight status page for this flight to view local times or setup timezone preferences in your user account.

Time Position Orientation Groundspeed Altitude Reporting Facility
EST Latitude Longitude Course Direction KTS MPH feet Rate Location/Type
Mon 09:09:25 PM 33.3333 -84.7333 90° East 166 191 3,400  Level Atlanta TRACON
Mon 09:10:25 PM 33.3333 -84.6667 90° East 195 224 4,000 300 Climbing Atlanta TRACON
Mon 09:11:25 PM 33.3333 -84.6000 90° East 222 255 4,000 100 Level Atlanta TRACON
Mon 09:12:25 PM 33.3167 -84.5167 103° East 224 258 4,200 750 Climbing Atlanta TRACON
Mon 09:13:25 PM 33.3167 -84.4500 90° East 187 215 5,500 1,250 Climbing Atlanta TRACON
Mon 09:14:25 PM 33.3167 -84.4000 90° East 171 197 6,700 1,250 Climbing Atlanta TRACON
Mon 09:15:25 PM 33.3167 -84.3333 90° East 181 208 8,000 1,100 Climbing Atlanta TRACON
Mon 09:16:25 PM 33.3333 -84.2833 68° East 188 216 8,900 500 Climbing Atlanta TRACON
Mon 09:17:25 PM 33.3500 -84.2167 73° East 225 259 9,000 51 Climbing Atlanta TRACON
Mon 09:18:23 PM 33.3664 -84.1408 75° East 253 291 9,000  Level Atlanta Center
Mon 09:19:23 PM 33.3956 -84.0686 64° Northeast 243 280 9,000  Level Atlanta Center
Mon 09:20:23 PM 33.4269 -84.0089 58° Northeast 237 273 9,000  Level Atlanta Center
Mon 09:21:23 PM 33.4644 -83.9442 55° Northeast 231 266 9,000  Level Atlanta Center
Mon 09:22:23 PM 33.5019 -83.8794 55° Northeast 231 266 9,000  Level Atlanta Center
Mon 09:23:23 PM 33.5394 -83.8169 54° Northeast 231 266 9,000 300 Level Atlanta Center
Mon 09:24:23 PM 33.5769 -83.7569 53° Northeast 226 260 9,600 700 Climbing Atlanta Center
Mon 09:25:23 PM 33.6100 -83.6997 55° Northeast 213 245 10,400 700 Climbing Atlanta Center
Mon 09:26:23 PM 33.6433 -83.6372 57° Northeast 215 247 11,000 350 Climbing Atlanta Center
Mon 09:27:23 PM 33.6869 -83.5819 47° Northeast 222 255 11,100 550 Climbing Atlanta Center
Mon 09:28:23 PM 33.7347 -83.5317 41° Northeast 222 255 12,100 950 Climbing Atlanta Center
Mon 09:29:23 PM 33.7806 -83.4814 42° Northeast 207 238 13,000 450 Climbing Atlanta Center
Mon 09:30:23 PM 33.8303 -83.4261 43° Northeast 216 249 13,000  Level Atlanta Center
Mon 09:31:23 PM 33.8822 -83.3733 40° Northeast 234 269 13,000  Level Atlanta Center
Mon 09:32:23 PM 33.9361 -83.3153 42° Northeast 245 282 13,000  Level Atlanta Center
Mon 09:33:23 PM 33.9881 -83.2622 40° Northeast 245 282 13,000  Level Atlanta Center
Mon 09:34:23 PM 34.0419 -83.2039 42° Northeast 245 282 13,000  Level Atlanta Center
Mon 09:35:23 PM 34.0958 -83.1508 39° Northeast 245 282 13,000  Level Atlanta Center
Mon 09:36:23 PM 34.1475 -83.0950 42° Northeast 245 282 13,000  Level Atlanta Center
Mon 09:37:23 PM 34.1972 -83.0392 43° Northeast 245 282 13,000  Level Atlanta Center
Mon 09:38:23 PM 34.2508 -82.9833 41° Northeast 245 282 13,000  Level Atlanta Center
Mon 09:39:23 PM 34.3025 -82.9247 43° Northeast 245 282 13,000 -350 Level Atlanta Center
Mon 09:40:23 PM 34.3522 -82.8764 39° Northeast 245 282 12,300 -950 Descending Atlanta Center
Mon 09:41:23 PM 34.3997 -82.8178 46° Northeast 247 284 11,100 -900 Descending Atlanta Center
Mon 09:42:23 PM 34.4556 -82.7717 34° Northeast 239 275 10,500 -800 Descending Atlanta Center
Mon 09:43:23 PM 34.5050 -82.7128 44° Northeast 239 275 9,500 -1,000 Descending Atlanta Center
Mon 09:44:23 PM 34.5503 -82.6542 47° Northeast 234 269 8,500 -1,000 Descending Atlanta Center
Mon 09:45:23 PM 34.5933 -82.5956 48° Northeast 234 269 7,500 -1,150 Descending Atlanta Center
Mon 09:46:23 PM 34.6367 -82.5392 47° Northeast 229 264 6,200 -1,400 Descending Atlanta Center
Mon 09:47:23 PM 34.6756 -82.4828 50° Northeast 217 250 4,700 -1,500 Descending Atlanta Center
Mon 09:48:23 PM 34.7125 -82.4342 47° Northeast 206 237 3,200 -1,500 Descending Atlanta Center
Mon 09:50:00 PM 34.8070 -82.3763 39° Northeast  Level FlightAware Approximate
Mon 09:57:00 PM 34.8333 -82.3500 39° Northeast  Level FlightAware Approximate
Mon 09:58:00 PM 34.8479 -82.3500 39° Northeast  Level Estimated
Mon 09:59:00 PM 34.8479 -82.3500 39° Northeast  Level Estimated
Mon 10:00:00 PM 34.8479 -82.3500 39° Northeast  Level Estimated
Mon 10:01:00 PM 34.8479 -82.3500 39° Northeast  Level Estimated

Login

Don't have an account? Register now (free) for customized features, flight alerts, and more!